sensor_id;sensor_type;location;lat;lon;timestamp;temperature;humidity
69895;DHT22;57172;52.034;5.090;2023-07-02T00:00:09;17.00;76.90
69895;DHT22;57172;52.034;5.090;2023-07-02T00:02:36;17.00;77.20
69895;DHT22;57172;52.034;5.090;2023-07-02T00:05:04;17.00;77.20
69895;DHT22;57172;52.034;5.090;2023-07-02T00:07:32;17.00;77.40
69895;DHT22;57172;52.034;5.090;2023-07-02T00:09:59;17.00;77.70
69895;DHT22;57172;52.034;5.090;2023-07-02T00:12:26;17.00;77.90
69895;DHT22;57172;52.034;5.090;2023-07-02T00:14:53;17.00;78.20
69895;DHT22;57172;52.034;5.090;2023-07-02T00:17:21;17.00;78.50
69895;DHT22;57172;52.034;5.090;2023-07-02T00:19:48;17.00;78.90
69895;DHT22;57172;52.034;5.090;2023-07-02T00:22:19;17.00;79.20
69895;DHT22;57172;52.034;5.090;2023-07-02T00:24:47;17.00;79.40
69895;DHT22;57172;52.034;5.090;2023-07-02T00:27:14;17.10;79.40
69895;DHT22;57172;52.034;5.090;2023-07-02T00:29:41;17.10;79.60
69895;DHT22;57172;52.034;5.090;2023-07-02T00:32:08;17.10;79.80
69895;DHT22;57172;52.034;5.090;2023-07-02T00:34:35;17.20;79.90
69895;DHT22;57172;52.034;5.090;2023-07-02T00:37:02;17.20;79.90
69895;DHT22;57172;52.034;5.090;2023-07-02T00:39:29;17.20;80.00
69895;DHT22;57172;52.034;5.090;2023-07-02T00:42:03;17.20;79.90
69895;DHT22;57172;52.034;5.090;2023-07-02T00:44:31;17.20;79.80
69895;DHT22;57172;52.034;5.090;2023-07-02T00:46:58;17.20;79.80
69895;DHT22;57172;52.034;5.090;2023-07-02T00:49:26;17.20;79.90
69895;DHT22;57172;52.034;5.090;2023-07-02T00:51:53;17.20;79.90
69895;DHT22;57172;52.034;5.090;2023-07-02T00:54:20;17.10;79.90
69895;DHT22;57172;52.034;5.090;2023-07-02T00:56:47;17.10;80.00
69895;DHT22;57172;52.034;5.090;2023-07-02T00:59:14;17.00;79.80
69895;DHT22;57172;52.034;5.090;2023-07-02T01:01:41;16.90;79.80
69895;DHT22;57172;52.034;5.090;2023-07-02T01:04:09;16.90;79.90
69895;DHT22;57172;52.034;5.090;2023-07-02T01:06:36;16.90;79.90
69895;DHT22;57172;52.034;5.090;2023-07-02T01:09:08;16.80;80.10
69895;DHT22;57172;52.034;5.090;2023-07-02T01:11:43;16.80;80.00
69895;DHT22;57172;52.034;5.090;2023-07-02T01:14:20;16.80;79.80
69895;DHT22;57172;52.034;5.090;2023-07-02T01:16:48;16.70;79.60
69895;DHT22;57172;52.034;5.090;2023-07-02T01:22:08;16.60;79.20
69895;DHT22;57172;52.034;5.090;2023-07-02T01:24:41;16.60;79.20
69895;DHT22;57172;52.034;5.090;2023-07-02T01:27:08;16.50;78.70
69895;DHT22;57172;52.034;5.090;2023-07-02T01:29:37;16.50;78.40
69895;DHT22;57172;52.034;5.090;2023-07-02T01:32:04;16.40;78.30
69895;DHT22;57172;52.034;5.090;2023-07-02T01:34:32;16.30;78.10
69895;DHT22;57172;52.034;5.090;2023-07-02T01:36:59;16.30;78.10
69895;DHT22;57172;52.034;5.090;2023-07-02T01:39:26;16.20;77.80
69895;DHT22;57172;52.034;5.090;2023-07-02T01:44:36;16.10;77.80
69895;DHT22;57172;52.034;5.090;2023-07-02T01:47:05;16.10;77.90
69895;DHT22;57172;52.034;5.090;2023-07-02T01:49:32;16.00;78.00
69895;DHT22;57172;52.034;5.090;2023-07-02T01:51:59;16.00;78.10
69895;DHT22;57172;52.034;5.090;2023-07-02T01:54:27;15.90;78.40
69895;DHT22;57172;52.034;5.090;2023-07-02T01:56:57;15.90;78.40
69895;DHT22;57172;52.034;5.090;2023-07-02T01:59:25;15.90;78.50
69895;DHT22;57172;52.034;5.090;2023-07-02T02:01:52;15.90;78.40
69895;DHT22;57172;52.034;5.090;2023-07-02T02:04:19;15.90;78.50
69895;DHT22;57172;52.034;5.090;2023-07-02T02:06:46;15.90;78.50
69895;DHT22;57172;52.034;5.090;2023-07-02T02:09:13;16.00;78.50
69895;DHT22;57172;52.034;5.090;2023-07-02T02:11:44;15.90;78.40
69895;DHT22;57172;52.034;5.090;2023-07-02T02:14:11;15.90;78.20
69895;DHT22;57172;52.034;5.090;2023-07-02T02:16:38;15.90;78.00
69895;DHT22;57172;52.034;5.090;2023-07-02T02:19:06;15.90;77.50
69895;DHT22;57172;52.034;5.090;2023-07-02T02:21:33;15.90;77.30
69895;DHT22;57172;52.034;5.090;2023-07-02T02:23:59;15.80;77.10
69895;DHT22;57172;52.034;5.090;2023-07-02T02:26:26;15.80;76.80
69895;DHT22;57172;52.034;5.090;2023-07-02T02:28:53;15.70;76.70
69895;DHT22;57172;52.034;5.090;2023-07-02T02:31:20;15.70;76.60
69895;DHT22;57172;52.034;5.090;2023-07-02T02:33:48;15.70;76.50
69895;DHT22;57172;52.034;5.090;2023-07-02T02:36:15;15.60;76.20
69895;DHT22;57172;52.034;5.090;2023-07-02T02:38:44;15.60;76.20
69895;DHT22;57172;52.034;5.090;2023-07-02T02:41:12;15.60;76.10
69895;DHT22;57172;52.034;5.090;2023-07-02T02:43:43;15.60;76.00
69895;DHT22;57172;52.034;5.090;2023-07-02T02:46:20;15.60;75.70
69895;DHT22;57172;52.034;5.090;2023-07-02T02:48:48;15.60;75.40
69895;DHT22;57172;52.034;5.090;2023-07-02T02:51:15;15.60;75.10
69895;DHT22;57172;52.034;5.090;2023-07-02T02:53:42;15.60;74.80
69895;DHT22;57172;52.034;5.090;2023-07-02T02:56:09;15.60;74.60
69895;DHT22;57172;52.034;5.090;2023-07-02T02:58:36;15.60;74.20
69895;DHT22;57172;52.034;5.090;2023-07-02T03:01:03;15.60;74.00
69895;DHT22;57172;52.034;5.090;2023-07-02T03:03:39;15.60;73.70
69895;DHT22;57172;52.034;5.090;2023-07-02T03:06:07;15.70;73.40
69895;DHT22;57172;52.034;5.090;2023-07-02T03:08:34;15.70;73.10
69895;DHT22;57172;52.034;5.090;2023-07-02T03:11:01;15.60;72.90
69895;DHT22;57172;52.034;5.090;2023-07-02T03:13:28;15.60;72.70
69895;DHT22;57172;52.034;5.090;2023-07-02T03:15:55;15.60;72.50
69895;DHT22;57172;52.034;5.090;2023-07-02T03:18:22;15.60;72.40
69895;DHT22;57172;52.034;5.090;2023-07-02T03:20:49;15.60;72.20
69895;DHT22;57172;52.034;5.090;2023-07-02T03:23:16;15.60;71.90
69895;DHT22;57172;52.034;5.090;2023-07-02T03:25:43;15.60;71.70
69895;DHT22;57172;52.034;5.090;2023-07-02T03:28:10;15.50;71.50
69895;DHT22;57172;52.034;5.090;2023-07-02T03:30:36;15.50;71.30
69895;DHT22;57172;52.034;5.090;2023-07-02T03:33:03;15.50;71.30
69895;DHT22;57172;52.034;5.090;2023-07-02T03:35:30;15.40;71.30
69895;DHT22;57172;52.034;5.090;2023-07-02T03:37:57;15.40;71.30
69895;DHT22;57172;52.034;5.090;2023-07-02T03:40:24;15.40;71.20
69895;DHT22;57172;52.034;5.090;2023-07-02T03:42:51;15.30;70.90
69895;DHT22;57172;52.034;5.090;2023-07-02T03:45:18;15.30;70.90
69895;DHT22;57172;52.034;5.090;2023-07-02T03:47:45;15.30;71.00
69895;DHT22;57172;52.034;5.090;2023-07-02T03:50:12;15.30;71.00
69895;DHT22;57172;52.034;5.090;2023-07-02T03:52:39;15.30;70.90
69895;DHT22;57172;52.034;5.090;2023-07-02T03:55:06;15.30;70.90
69895;DHT22;57172;52.034;5.090;2023-07-02T03:57:33;15.30;70.90
69895;DHT22;57172;52.034;5.090;2023-07-02T04:00:00;15.30;70.90
69895;DHT22;57172;52.034;5.090;2023-07-02T04:02:27;15.20;70.90
69895;DHT22;57172;52.034;5.090;2023-07-02T04:04:54;15.20;70.90
69895;DHT22;57172;52.034;5.090;2023-07-02T04:07:21;15.20;70.90
69895;DHT22;57172;52.034;5.090;2023-07-02T04:09:48;15.20;71.00
69895;DHT22;57172;52.034;5.090;2023-07-02T04:12:14;15.20;71.10
69895;DHT22;57172;52.034;5.090;2023-07-02T04:14:41;15.20;71.10
69895;DHT22;57172;52.034;5.090;2023-07-02T04:17:09;15.20;71.20
69895;DHT22;57172;52.034;5.090;2023-07-02T04:19:36;15.20;71.10
69895;DHT22;57172;52.034;5.090;2023-07-02T04:22:03;15.20;71.10
69895;DHT22;57172;52.034;5.090;2023-07-02T04:24:30;15.20;71.10
69895;DHT22;57172;52.034;5.090;2023-07-02T04:26:57;15.20;71.10
69895;DHT22;57172;52.034;5.090;2023-07-02T04:29:46;15.20;71.20
69895;DHT22;57172;52.034;5.090;2023-07-02T04:32:13;15.20;71.10
69895;DHT22;57172;52.034;5.090;2023-07-02T04:34:40;15.20;71.20
69895;DHT22;57172;52.034;5.090;2023-07-02T04:37:09;15.20;71.20
69895;DHT22;57172;52.034;5.090;2023-07-02T04:39:36;15.30;71.30
69895;DHT22;57172;52.034;5.090;2023-07-02T04:42:03;15.30;71.20
69895;DHT22;57172;52.034;5.090;2023-07-02T04:44:30;15.30;71.10
69895;DHT22;57172;52.034;5.090;2023-07-02T04:46:58;15.40;71.10
69895;DHT22;57172;52.034;5.090;2023-07-02T04:49:25;15.40;71.00
69895;DHT22;57172;52.034;5.090;2023-07-02T04:51:53;15.50;71.00
69895;DHT22;57172;52.034;5.090;2023-07-02T04:54:21;15.50;70.90
69895;DHT22;57172;52.034;5.090;2023-07-02T04:56:48;15.60;70.70
69895;DHT22;57172;52.034;5.090;2023-07-02T04:59:15;15.70;70.70
69895;DHT22;57172;52.034;5.090;2023-07-02T05:01:42;15.70;70.60
69895;DHT22;57172;52.034;5.090;2023-07-02T05:04:11;15.80;70.30
69895;DHT22;57172;52.034;5.090;2023-07-02T05:06:39;15.90;70.10
69895;DHT22;57172;52.034;5.090;2023-07-02T05:09:05;15.90;70.00
69895;DHT22;57172;52.034;5.090;2023-07-02T05:11:32;16.00;70.00
69895;DHT22;57172;52.034;5.090;2023-07-02T05:13:59;16.00;69.70
69895;DHT22;57172;52.034;5.090;2023-07-02T05:16:26;16.10;69.80
69895;DHT22;57172;52.034;5.090;2023-07-02T05:18:53;16.10;69.40
69895;DHT22;57172;52.034;5.090;2023-07-02T05:21:21;16.20;69.30
69895;DHT22;57172;52.034;5.090;2023-07-02T05:23:47;16.30;69.20
69895;DHT22;57172;52.034;5.090;2023-07-02T05:26:15;16.30;69.10
69895;DHT22;57172;52.034;5.090;2023-07-02T05:28:42;16.30;69.10
69895;DHT22;57172;52.034;5.090;2023-07-02T05:31:09;16.30;69.00
69895;DHT22;57172;52.034;5.090;2023-07-02T05:33:36;16.40;68.90
69895;DHT22;57172;52.034;5.090;2023-07-02T05:36:03;16.40;68.80
69895;DHT22;57172;52.034;5.090;2023-07-02T05:38:29;16.40;68.80
69895;DHT22;57172;52.034;5.090;2023-07-02T05:40:57;16.40;68.90
69895;DHT22;57172;52.034;5.090;2023-07-02T05:43:23;16.50;68.80
69895;DHT22;57172;52.034;5.090;2023-07-02T05:45:51;16.50;68.70
69895;DHT22;57172;52.034;5.090;2023-07-02T05:48:19;16.50;69.00
69895;DHT22;57172;52.034;5.090;2023-07-02T05:50:46;16.60;68.90
69895;DHT22;57172;52.034;5.090;2023-07-02T05:53:13;16.60;68.70
69895;DHT22;57172;52.034;5.090;2023-07-02T05:55:42;16.70;68.80
69895;DHT22;57172;52.034;5.090;2023-07-02T05:58:08;16.80;68.90
69895;DHT22;57172;52.034;5.090;2023-07-02T06:00:35;16.90;68.40
69895;DHT22;57172;52.034;5.090;2023-07-02T06:03:02;17.00;67.80
69895;DHT22;57172;52.034;5.090;2023-07-02T06:05:30;17.10;67.80
69895;DHT22;57172;52.034;5.090;2023-07-02T06:07:57;17.20;67.40
69895;DHT22;57172;52.034;5.090;2023-07-02T06:10:24;17.30;67.60
69895;DHT22;57172;52.034;5.090;2023-07-02T06:12:51;17.40;66.60
69895;DHT22;57172;52.034;5.090;2023-07-02T06:15:18;17.40;66.80
69895;DHT22;57172;52.034;5.090;2023-07-02T06:17:45;17.60;66.60
69895;DHT22;57172;52.034;5.090;2023-07-02T06:20:12;17.60;65.90
69895;DHT22;57172;52.034;5.090;2023-07-02T06:22:39;17.60;66.10
69895;DHT22;57172;52.034;5.090;2023-07-02T06:25:08;17.60;65.50
69895;DHT22;57172;52.034;5.090;2023-07-02T06:27:35;17.70;66.00
69895;DHT22;57172;52.034;5.090;2023-07-02T06:30:02;17.80;65.40
69895;DHT22;57172;52.034;5.090;2023-07-02T06:32:29;17.80;65.10
69895;DHT22;57172;52.034;5.090;2023-07-02T06:34:56;17.80;64.30
69895;DHT22;57172;52.034;5.090;2023-07-02T06:37:23;17.80;64.80
69895;DHT22;57172;52.034;5.090;2023-07-02T06:39:50;17.90;64.60
69895;DHT22;57172;52.034;5.090;2023-07-02T06:42:17;17.80;64.20
69895;DHT22;57172;52.034;5.090;2023-07-02T06:44:44;17.80;64.20
69895;DHT22;57172;52.034;5.090;2023-07-02T06:47:11;17.90;64.40
69895;DHT22;57172;52.034;5.090;2023-07-02T06:49:38;17.90;63.90
69895;DHT22;57172;52.034;5.090;2023-07-02T06:52:05;18.00;63.90
69895;DHT22;57172;52.034;5.090;2023-07-02T06:54:32;18.00;63.10
69895;DHT22;57172;52.034;5.090;2023-07-02T06:56:58;18.00;63.40
69895;DHT22;57172;52.034;5.090;2023-07-02T06:59:25;18.00;62.70
69895;DHT22;57172;52.034;5.090;2023-07-02T07:01:53;18.00;62.20
69895;DHT22;57172;52.034;5.090;2023-07-02T07:04:20;18.00;62.40
69895;DHT22;57172;52.034;5.090;2023-07-02T07:06:47;18.00;62.30
69895;DHT22;57172;52.034;5.090;2023-07-02T07:09:14;18.00;61.60
69895;DHT22;57172;52.034;5.090;2023-07-02T07:11:41;18.00;62.10
69895;DHT22;57172;52.034;5.090;2023-07-02T07:14:08;18.00;62.00
69895;DHT22;57172;52.034;5.090;2023-07-02T07:16:35;18.10;62.00
69895;DHT22;57172;52.034;5.090;2023-07-02T07:19:01;18.10;61.90
69895;DHT22;57172;52.034;5.090;2023-07-02T07:21:28;18.20;61.20
69895;DHT22;57172;52.034;5.090;2023-07-02T07:23:55;18.30;60.90
69895;DHT22;57172;52.034;5.090;2023-07-02T07:26:22;18.30;60.70
69895;DHT22;57172;52.034;5.090;2023-07-02T07:28:49;18.40;60.80
69895;DHT22;57172;52.034;5.090;2023-07-02T07:31:16;18.50;60.50
69895;DHT22;57172;52.034;5.090;2023-07-02T07:33:43;18.60;60.00
69895;DHT22;57172;52.034;5.090;2023-07-02T07:36:10;18.60;59.10
69895;DHT22;57172;52.034;5.090;2023-07-02T07:38:37;18.70;58.50
69895;DHT22;57172;52.034;5.090;2023-07-02T07:41:04;18.70;58.60
69895;DHT22;57172;52.034;5.090;2023-07-02T07:43:31;18.80;58.90
69895;DHT22;57172;52.034;5.090;2023-07-02T07:45:58;18.90;58.40
69895;DHT22;57172;52.034;5.090;2023-07-02T07:48:26;19.00;57.70
69895;DHT22;57172;52.034;5.090;2023-07-02T07:50:53;19.00;56.70
69895;DHT22;57172;52.034;5.090;2023-07-02T07:53:19;18.90;56.60
69895;DHT22;57172;52.034;5.090;2023-07-02T07:55:46;19.00;56.90
69895;DHT22;57172;52.034;5.090;2023-07-02T07:58:14;19.00;56.80
69895;DHT22;57172;52.034;5.090;2023-07-02T08:00:41;19.10;56.10
69895;DHT22;57172;52.034;5.090;2023-07-02T08:03:09;19.10;56.20
69895;DHT22;57172;52.034;5.090;2023-07-02T08:05:36;19.10;56.10
69895;DHT22;57172;52.034;5.090;2023-07-02T08:08:03;19.10;55.80
69895;DHT22;57172;52.034;5.090;2023-07-02T08:10:30;19.10;55.00
69895;DHT22;57172;52.034;5.090;2023-07-02T08:12:57;19.10;54.70
69895;DHT22;57172;52.034;5.090;2023-07-02T08:15:24;19.10;55.10
69895;DHT22;57172;52.034;5.090;2023-07-02T08:17:51;19.20;54.90
69895;DHT22;57172;52.034;5.090;2023-07-02T08:20:21;19.30;54.40
69895;DHT22;57172;52.034;5.090;2023-07-02T08:22:48;19.40;54.70
69895;DHT22;57172;52.034;5.090;2023-07-02T08:25:16;19.50;54.20
69895;DHT22;57172;52.034;5.090;2023-07-02T08:27:44;19.70;53.70
69895;DHT22;57172;52.034;5.090;2023-07-02T08:30:11;19.70;53.10
69895;DHT22;57172;52.034;5.090;2023-07-02T08:32:38;19.70;52.80
69895;DHT22;57172;52.034;5.090;2023-07-02T08:35:05;19.70;52.60
69895;DHT22;57172;52.034;5.090;2023-07-02T08:37:32;19.70;50.60
69895;DHT22;57172;52.034;5.090;2023-07-02T08:39:59;19.70;50.80
69895;DHT22;57172;52.034;5.090;2023-07-02T08:42:26;19.70;51.10
69895;DHT22;57172;52.034;5.090;2023-07-02T08:44:57;19.80;51.50
69895;DHT22;57172;52.034;5.090;2023-07-02T08:47:26;20.00;51.20
69895;DHT22;57172;52.034;5.090;2023-07-02T08:49:53;20.10;51.70
69895;DHT22;57172;52.034;5.090;2023-07-02T08:52:20;20.20;51.80
69895;DHT22;57172;52.034;5.090;2023-07-02T08:54:47;20.40;51.00
69895;DHT22;57172;52.034;5.090;2023-07-02T08:57:13;20.60;51.10
69895;DHT22;57172;52.034;5.090;2023-07-02T08:59:40;20.70;50.70
69895;DHT22;57172;52.034;5.090;2023-07-02T09:02:07;20.70;50.00
69895;DHT22;57172;52.034;5.090;2023-07-02T09:04:34;20.70;49.70
69895;DHT22;57172;52.034;5.090;2023-07-02T09:07:06;20.90;50.10
69895;DHT22;57172;52.034;5.090;2023-07-02T09:09:33;21.30;49.60
69895;DHT22;57172;52.034;5.090;2023-07-02T09:12:10;21.40;46.70
69895;DHT22;57172;52.034;5.090;2023-07-02T09:15:00;21.50;47.80
69895;DHT22;57172;52.034;5.090;2023-07-02T09:17:29;21.70;46.30
69895;DHT22;57172;52.034;5.090;2023-07-02T09:19:58;21.60;46.70
69895;DHT22;57172;52.034;5.090;2023-07-02T09:22:29;21.80;46.30
69895;DHT22;57172;52.034;5.090;2023-07-02T09:24:57;21.90;45.60
69895;DHT22;57172;52.034;5.090;2023-07-02T09:27:38;22.20;46.40
69895;DHT22;57172;52.034;5.090;2023-07-02T09:30:13;22.90;47.00
69895;DHT22;57172;52.034;5.090;2023-07-02T09:32:43;23.20;45.20
69895;DHT22;57172;52.034;5.090;2023-07-02T09:35:12;23.40;44.50
69895;DHT22;57172;52.034;5.090;2023-07-02T09:37:40;24.00;45.70
69895;DHT22;57172;52.034;5.090;2023-07-02T09:40:08;24.60;43.00
69895;DHT22;57172;52.034;5.090;2023-07-02T09:42:38;24.60;41.60
69895;DHT22;57172;52.034;5.090;2023-07-02T09:45:08;24.40;42.30
69895;DHT22;57172;52.034;5.090;2023-07-02T09:47:42;24.60;43.30
69895;DHT22;57172;52.034;5.090;2023-07-02T09:50:14;25.40;43.00
69895;DHT22;57172;52.034;5.090;2023-07-02T09:52:44;26.00;40.20
69895;DHT22;57172;52.034;5.090;2023-07-02T09:55:12;26.20;40.20
69895;DHT22;57172;52.034;5.090;2023-07-02T09:57:39;26.50;39.90
69895;DHT22;57172;52.034;5.090;2023-07-02T10:00:07;26.90;39.70
69895;DHT22;57172;52.034;5.090;2023-07-02T10:02:37;26.90;36.60
69895;DHT22;57172;52.034;5.090;2023-07-02T10:05:05;26.40;36.00
69895;DHT22;57172;52.034;5.090;2023-07-02T10:07:32;26.10;36.30
69895;DHT22;57172;52.034;5.090;2023-07-02T10:10:00;26.00;37.20
69895;DHT22;57172;52.034;5.090;2023-07-02T10:12:28;26.20;38.20
69895;DHT22;57172;52.034;5.090;2023-07-02T10:14:57;26.60;36.70
69895;DHT22;57172;52.034;5.090;2023-07-02T10:17:34;27.00;37.50
69895;DHT22;57172;52.034;5.090;2023-07-02T10:20:07;27.40;37.30
69895;DHT22;57172;52.034;5.090;2023-07-02T10:22:45;27.50;35.80
69895;DHT22;57172;52.034;5.090;2023-07-02T10:25:31;27.10;35.90
69895;DHT22;57172;52.034;5.090;2023-07-02T10:27:58;27.10;35.30
69895;DHT22;57172;52.034;5.090;2023-07-02T10:30:34;27.00;34.90
69895;DHT22;57172;52.034;5.090;2023-07-02T10:33:12;27.00;35.20
69895;DHT22;57172;52.034;5.090;2023-07-02T10:35:41;27.00;35.30
69895;DHT22;57172;52.034;5.090;2023-07-02T10:38:14;27.20;35.20
69895;DHT22;57172;52.034;5.090;2023-07-02T10:40:44;27.10;35.50
69895;DHT22;57172;52.034;5.090;2023-07-02T10:43:12;27.20;35.40
69895;DHT22;57172;52.034;5.090;2023-07-02T10:45:39;27.10;34.90
69895;DHT22;57172;52.034;5.090;2023-07-02T10:48:09;27.00;35.60
69895;DHT22;57172;52.034;5.090;2023-07-02T10:50:37;27.00;34.50
69895;DHT22;57172;52.034;5.090;2023-07-02T10:53:04;27.10;34.70
69895;DHT22;57172;52.034;5.090;2023-07-02T10:55:31;27.30;34.60
69895;DHT22;57172;52.034;5.090;2023-07-02T10:58:08;27.30;34.10
69895;DHT22;57172;52.034;5.090;2023-07-02T11:00:51;27.40;34.10
69895;DHT22;57172;52.034;5.090;2023-07-02T11:03:20;27.80;34.30
69895;DHT22;57172;52.034;5.090;2023-07-02T11:05:48;28.00;33.70
69895;DHT22;57172;52.034;5.090;2023-07-02T11:08:17;28.10;33.30
69895;DHT22;57172;52.034;5.090;2023-07-02T11:10:44;28.40;32.90
69895;DHT22;57172;52.034;5.090;2023-07-02T11:13:18;28.30;32.00
69895;DHT22;57172;52.034;5.090;2023-07-02T11:15:45;28.30;32.30
69895;DHT22;57172;52.034;5.090;2023-07-02T11:18:17;28.30;31.70
69895;DHT22;57172;52.034;5.090;2023-07-02T11:20:46;27.80;31.80
69895;DHT22;57172;52.034;5.090;2023-07-02T11:23:20;27.80;33.00
69895;DHT22;57172;52.034;5.090;2023-07-02T11:25:59;28.00;32.20
69895;DHT22;57172;52.034;5.090;2023-07-02T11:28:27;28.00;32.20
69895;DHT22;57172;52.034;5.090;2023-07-02T11:30:55;27.90;32.30
69895;DHT22;57172;52.034;5.090;2023-07-02T11:33:36;27.80;31.60
69895;DHT22;57172;52.034;5.090;2023-07-02T11:36:04;27.50;31.70
69895;DHT22;57172;52.034;5.090;2023-07-02T11:38:34;27.20;32.50
69895;DHT22;57172;52.034;5.090;2023-07-02T11:41:03;26.90;32.80
69895;DHT22;57172;52.034;5.090;2023-07-02T11:43:30;26.70;32.60
69895;DHT22;57172;52.034;5.090;2023-07-02T11:45:57;26.30;33.20
69895;DHT22;57172;52.034;5.090;2023-07-02T11:48:24;26.00;34.20
69895;DHT22;57172;52.034;5.090;2023-07-02T11:50:51;26.10;34.50
69895;DHT22;57172;52.034;5.090;2023-07-02T11:53:18;26.20;34.40
69895;DHT22;57172;52.034;5.090;2023-07-02T11:55:45;26.40;35.00
69895;DHT22;57172;52.034;5.090;2023-07-02T11:58:12;26.70;34.40
69895;DHT22;57172;52.034;5.090;2023-07-02T12:00:39;26.60;33.60
69895;DHT22;57172;52.034;5.090;2023-07-02T12:03:06;26.30;33.60
69895;DHT22;57172;52.034;5.090;2023-07-02T12:05:33;26.50;34.50
69895;DHT22;57172;52.034;5.090;2023-07-02T12:08:02;26.70;33.30
69895;DHT22;57172;52.034;5.090;2023-07-02T12:10:29;26.90;33.90
69895;DHT22;57172;52.034;5.090;2023-07-02T12:12:56;27.00;32.90
69895;DHT22;57172;52.034;5.090;2023-07-02T12:15:23;26.70;32.50
69895;DHT22;57172;52.034;5.090;2023-07-02T12:17:49;26.30;33.10
69895;DHT22;57172;52.034;5.090;2023-07-02T12:20:17;26.50;33.10
69895;DHT22;57172;52.034;5.090;2023-07-02T12:22:43;26.70;33.10
69895;DHT22;57172;52.034;5.090;2023-07-02T12:25:11;26.80;32.80
69895;DHT22;57172;52.034;5.090;2023-07-02T12:27:38;26.90;33.50
69895;DHT22;57172;52.034;5.090;2023-07-02T12:30:05;27.30;33.50
69895;DHT22;57172;52.034;5.090;2023-07-02T12:32:32;27.70;32.90
69895;DHT22;57172;52.034;5.090;2023-07-02T12:34:59;28.00;31.90
69895;DHT22;57172;52.034;5.090;2023-07-02T12:37:27;27.60;32.10
69895;DHT22;57172;52.034;5.090;2023-07-02T12:39:53;27.50;32.70
69895;DHT22;57172;52.034;5.090;2023-07-02T12:42:20;27.70;32.20
69895;DHT22;57172;52.034;5.090;2023-07-02T12:44:47;27.20;31.90
69895;DHT22;57172;52.034;5.090;2023-07-02T12:47:14;26.90;33.00
69895;DHT22;57172;52.034;5.090;2023-07-02T12:49:41;27.10;33.00
69895;DHT22;57172;52.034;5.090;2023-07-02T12:52:08;27.40;32.70
69895;DHT22;57172;52.034;5.090;2023-07-02T12:54:35;27.70;33.30
69895;DHT22;57172;52.034;5.090;2023-07-02T12:57:02;28.10;33.30
69895;DHT22;57172;52.034;5.090;2023-07-02T12:59:29;28.40;32.40
69895;DHT22;57172;52.034;5.090;2023-07-02T13:01:56;28.20;31.70
69895;DHT22;57172;52.034;5.090;2023-07-02T13:04:23;27.90;31.70
69895;DHT22;57172;52.034;5.090;2023-07-02T13:06:50;28.00;32.20
69895;DHT22;57172;52.034;5.090;2023-07-02T13:09:17;27.90;31.10
69895;DHT22;57172;52.034;5.090;2023-07-02T13:11:44;27.50;31.50
69895;DHT22;57172;52.034;5.090;2023-07-02T13:14:10;27.00;31.90
69895;DHT22;57172;52.034;5.090;2023-07-02T13:16:37;26.60;32.40
69895;DHT22;57172;52.034;5.090;2023-07-02T13:19:04;26.60;33.30
69895;DHT22;57172;52.034;5.090;2023-07-02T13:21:31;26.80;33.20
69895;DHT22;57172;52.034;5.090;2023-07-02T13:23:58;27.00;33.30
69895;DHT22;57172;52.034;5.090;2023-07-02T13:26:25;27.00;32.70
69895;DHT22;57172;52.034;5.090;2023-07-02T13:28:53;27.00;33.60
69895;DHT22;57172;52.034;5.090;2023-07-02T13:31:20;27.40;33.80
69895;DHT22;57172;52.034;5.090;2023-07-02T13:33:47;27.80;33.30
69895;DHT22;57172;52.034;5.090;2023-07-02T13:36:14;28.00;33.40
69895;DHT22;57172;52.034;5.090;2023-07-02T13:38:40;28.40;32.90
69895;DHT22;57172;52.034;5.090;2023-07-02T13:41:08;28.60;32.30
69895;DHT22;57172;52.034;5.090;2023-07-02T13:43:35;28.30;31.10
69895;DHT22;57172;52.034;5.090;2023-07-02T13:46:02;27.70;31.70
69895;DHT22;57172;52.034;5.090;2023-07-02T13:48:29;27.40;32.90
69895;DHT22;57172;52.034;5.090;2023-07-02T13:50:56;27.50;32.70
69895;DHT22;57172;52.034;5.090;2023-07-02T13:53:23;27.50;32.50
69895;DHT22;57172;52.034;5.090;2023-07-02T13:55:50;27.60;32.20
69895;DHT22;57172;52.034;5.090;2023-07-02T13:58:18;27.70;32.40
69895;DHT22;57172;52.034;5.090;2023-07-02T14:00:56;27.70;31.60
69895;DHT22;57172;52.034;5.090;2023-07-02T14:03:23;27.20;31.30
69895;DHT22;57172;52.034;5.090;2023-07-02T14:05:50;26.70;31.80
69895;DHT22;57172;52.034;5.090;2023-07-02T14:08:18;26.60;32.30
69895;DHT22;57172;52.034;5.090;2023-07-02T14:10:45;26.70;31.50
69895;DHT22;57172;52.034;5.090;2023-07-02T14:13:13;26.40;31.30
69895;DHT22;57172;52.034;5.090;2023-07-02T14:15:40;26.40;32.80
69895;DHT22;57172;52.034;5.090;2023-07-02T14:18:07;26.80;33.00
69895;DHT22;57172;52.034;5.090;2023-07-02T14:20:34;27.00;32.10
69895;DHT22;57172;52.034;5.090;2023-07-02T14:23:01;27.00;31.50
69895;DHT22;57172;52.034;5.090;2023-07-02T14:25:27;26.90;32.70
69895;DHT22;57172;52.034;5.090;2023-07-02T14:28:09;26.80;31.70
69895;DHT22;57172;52.034;5.090;2023-07-02T14:30:36;26.80;31.40
69895;DHT22;57172;52.034;5.090;2023-07-02T14:33:04;26.60;31.40
69895;DHT22;57172;52.034;5.090;2023-07-02T14:35:30;26.20;31.50
69895;DHT22;57172;52.034;5.090;2023-07-02T14:37:58;25.80;32.70
69895;DHT22;57172;52.034;5.090;2023-07-02T14:40:25;26.00;34.10
69895;DHT22;57172;52.034;5.090;2023-07-02T14:42:52;26.30;33.80
69895;DHT22;57172;52.034;5.090;2023-07-02T14:45:20;26.30;33.00
69895;DHT22;57172;52.034;5.090;2023-07-02T14:47:47;26.00;32.80
69895;DHT22;57172;52.034;5.090;2023-07-02T14:50:14;25.50;33.00
69895;DHT22;57172;52.034;5.090;2023-07-02T14:52:44;24.90;34.00
69895;DHT22;57172;52.034;5.090;2023-07-02T14:55:11;24.90;34.80
69895;DHT22;57172;52.034;5.090;2023-07-02T14:57:38;25.00;34.60
69895;DHT22;57172;52.034;5.090;2023-07-02T15:00:06;25.10;34.80
69895;DHT22;57172;52.034;5.090;2023-07-02T15:02:33;25.20;34.20
69895;DHT22;57172;52.034;5.090;2023-07-02T15:05:00;24.90;34.60
69895;DHT22;57172;52.034;5.090;2023-07-02T15:07:27;24.70;35.00
69895;DHT22;57172;52.034;5.090;2023-07-02T15:09:55;24.50;35.30
69895;DHT22;57172;52.034;5.090;2023-07-02T15:12:21;24.40;35.50
69895;DHT22;57172;52.034;5.090;2023-07-02T15:14:49;24.50;36.10
69895;DHT22;57172;52.034;5.090;2023-07-02T15:17:16;24.70;36.10
69895;DHT22;57172;52.034;5.090;2023-07-02T15:19:43;24.90;36.00
69895;DHT22;57172;52.034;5.090;2023-07-02T15:22:10;25.10;35.80
69895;DHT22;57172;52.034;5.090;2023-07-02T15:24:37;25.10;35.90
69895;DHT22;57172;52.034;5.090;2023-07-02T15:27:04;25.00;35.90
69895;DHT22;57172;52.034;5.090;2023-07-02T15:29:31;24.90;35.50
69895;DHT22;57172;52.034;5.090;2023-07-02T15:31:58;24.70;36.20
69895;DHT22;57172;52.034;5.090;2023-07-02T15:34:25;24.70;35.90
69895;DHT22;57172;52.034;5.090;2023-07-02T15:36:52;24.50;36.20
69895;DHT22;57172;52.034;5.090;2023-07-02T15:39:22;24.40;36.70